Satu Mare, Romania
Current Conditions -  °F | °C
As of 4:30 PM on Monday 24 Nov 2014 (Local Time) from LRSM Reporting Station
Clear Clear  
Wind Chill: 42°   Ceiling: Unl
Heat Index: 45°   Visibility: 6mi
Dew Point: 37°   Wind: 5mph
Humidity: 76%   Direction: 90°E
Pressure: 30.36"   Gusts: NA
Location:  47.79°N, 22.89°E
Report Text: LRSM 241330Z 09004KT CAVOK 07/03 Q1028
Loading
Personal Weather Stations






























Interactive Weather Map New forecast layout! Learn more

10-Day Weather Forecast

Advertisements
Track Severe Weather on mobile